Time;durP1;ratioP1;P1;durP2;ratioP2;P2;SDS_P1;SDS_P2;PMS_P1;PMS_P2;Temp;Humidity;BMP_temperature;BMP_pressure;BME280_temperature;BME280_humidity;BME280_pressure;Samples;Min_cycle;Max_cycle;Signal;HPM_P1;HPM_P2
2021/09/21 00:00:09;;;;;;;4.97;3.20;;;;;;;7.60;97.73;144128.25;1853576;77;22207;-65
2021/09/21 00:03:03;;;;;;;10.35;3.42;;;;;;;7.61;97.52;144130.78;1835018;77;22551;-63
2021/09/21 00:05:38;;;;;;;7.20;3.45;;;;;;;7.59;97.52;144125.75;1853585;77;22234;-73
2021/09/21 00:08:35;;;;;;;6.12;3.12;;;;;;;7.55;97.24;144114.50;1835095;77;22128;-60
2021/09/21 00:11:11;;;;;;;6.40;3.25;;;;;;;7.55;97.30;144115.73;1835054;77;22145;-62
2021/09/21 00:14:04;;;;;;;10.43;3.67;;;;;;;7.56;97.01;144118.27;1834972;77;22140;-64
2021/09/21 00:17:02;;;;;;;7.58;3.33;;;;;;;7.53;97.04;144109.47;1835063;77;22133;-62
2021/09/21 00:19:35;;;;;;;7.00;2.75;;;;;;;7.50;97.15;144103.22;1835046;77;22124;-68
2021/09/21 00:22:16;;;;;;;5.22;3.35;;;;;;;7.50;96.94;144103.22;1834218;77;22209;-59
2021/09/21 00:25:12;;;;;;;7.60;3.40;;;;;;;7.50;96.93;144103.22;1834999;77;22218;-62
2021/09/21 00:28:06;;;;;;;5.22;3.33;;;;;;;7.52;96.76;144107.00;1835035;77;20210;-66
2021/09/21 00:30:51;;;;;;;5.62;3.40;;;;;;;7.53;96.80;144110.77;1835026;77;22207;-62
2021/09/21 00:33:50;;;;;;;5.72;2.90;;;;;;;7.62;96.88;144132.02;1819385;77;27967;-69
2021/09/21 00:36:23;;;;;;;4.72;2.75;;;;;;;7.73;96.66;144158.28;1853624;77;22127;-67
2021/09/21 00:38:58;;;;;;;5.85;3.50;;;;;;;7.67;96.45;144143.28;1835097;77;22124;-66
2021/09/21 00:41:39;;;;;;;4.58;2.98;;;;;;;7.65;96.49;144138.28;1853585;77;22542;-61
2021/09/21 00:44:35;;;;;;;4.45;2.75;;;;;;;7.63;96.66;144133.25;1835234;77;22140;-68
2021/09/21 00:47:11;;;;;;;4.92;2.90;;;;;;;7.53;96.33;144110.77;1835049;77;22129;-68
2021/09/21 00:49:46;;;;;;;5.03;2.77;;;;;;;7.50;96.61;144103.22;1835056;77;22121;-61
2021/09/21 00:52:21;;;;;;;4.53;3.00;;;;;;;7.49;96.66;144100.75;1835061;77;22547;-71
2021/09/21 00:55:04;;;;;;;6.05;3.37;;;;;;;7.39;96.38;144075.72;1834261;77;22173;-64
2021/09/21 00:57:41;;;;;;;8.10;3.60;;;;;;;7.29;96.14;144050.70;1834831;77;22155;-65
2021/09/21 01:00:35;;;;;;;4.83;3.10;;;;;;;7.23;96.36;144035.72;1853660;77;22128;-68
2021/09/21 01:03:10;;;;;;;8.08;3.45;;;;;;;7.25;96.43;144040.69;1853563;77;22123;-67
2021/09/21 01:06:03;;;;;;;6.75;3.00;;;;;;;7.26;96.34;144043.20;1835050;77;22124;-63
2021/09/21 01:08:41;;;;;;;4.90;3.10;;;;;;;7.24;96.15;144039.44;1834817;77;22161;-64
2021/09/21 01:11:35;;;;;;;5.20;3.30;;;;;;;7.23;96.04;144036.95;1835101;77;22129;-60
2021/09/21 01:14:10;;;;;;;5.50;3.15;;;;;;;7.22;96.09;144034.42;1837792;77;27989;-60
2021/09/21 01:16:47;;;;;;;6.30;2.72;;;;;;;7.24;96.03;144038.19;1835031;77;22717;-61
2021/09/21 01:19:40;;;;;;;5.08;3.20;;;;;;;7.18;95.99;144025.69;1835101;77;22124;-63
2021/09/21 01:22:16;;;;;;;7.12;3.27;;;;;;;7.12;96.12;144009.41;1835101;77;22132;-63
2021/09/21 01:24:52;;;;;;;6.20;2.95;;;;;;;7.10;96.24;144005.69;1819420;77;28437;-67
2021/09/21 01:27:46;;;;;;;4.92;2.90;;;;;;;7.21;96.49;144030.70;1834996;77;22140;-65
2021/09/21 01:30:21;;;;;;;5.00;3.00;;;;;;;7.22;96.49;144033.19;1853593;77;22124;-66
2021/09/21 01:32:56;;;;;;;7.05;3.35;;;;;;;7.24;96.70;144038.19;1835043;77;22562;-70
2021/09/21 01:35:50;;;;;;;5.80;3.33;;;;;;;7.29;96.71;144050.70;1834973;77;22136;-62
2021/09/21 01:38:24;;;;;;;4.80;3.15;;;;;;;7.29;96.83;144050.70;1835033;77;22120;-64
2021/09/21 01:40:59;;;;;;;5.53;3.45;;;;;;;7.28;96.88;144048.22;1834993;77;22149;-70
2021/09/21 01:43:34;;;;;;;8.20;3.42;;;;;;;7.22;96.96;144033.19;1853737;77;22124;-68
2021/09/21 01:46:28;;;;;;;5.78;3.27;;;;;;;7.18;97.27;144025.69;1834985;77;22148;-65
2021/09/21 01:49:03;;;;;;;5.80;3.35;;;;;;;7.21;97.37;144030.70;1835469;77;22140;-64
2021/09/21 01:52:06;;;;;;;5.60;3.70;;;;;;;7.31;97.44;144055.72;1835250;77;22149;-69
2021/09/21 01:55:06;;;;;;;21.37;4.75;;;;;;;7.36;97.38;144069.47;1835169;77;22164;-63
2021/09/21 02:00:40;;;;;;;6.03;2.98;;;;;;;7.30;97.12;144054.47;1835038;77;22125;-65
2021/09/21 02:03:15;;;;;;;7.40;3.10;;;;;;;7.27;97.09;144045.69;1835027;77;22169;-64
2021/09/21 02:05:53;;;;;;;6.53;2.98;;;;;;;7.22;97.12;144034.42;1835015;77;22534;-64
2021/09/21 02:08:48;;;;;;;5.35;3.12;;;;;;;7.22;97.24;144033.19;1853492;77;22135;-68
2021/09/21 02:11:23;;;;;;;5.70;3.12;;;;;;;7.13;97.07;144013.19;1835018;77;22164;-61
2021/09/21 02:13:59;;;;;;;4.40;2.60;;;;;;;7.11;97.48;144006.92;1835043;77;22169;-62
2021/09/21 02:16:35;;;;;;;5.05;2.60;;;;;;;7.13;97.61;144013.19;1835105;77;22140;-68
2021/09/21 02:19:10;;;;;;;7.17;3.15;;;;;;;7.18;97.91;144025.69;1834890;77;22128;-68
2021/09/21 02:21:45;;;;;;;7.00;3.15;;;;;;;7.16;97.65;144020.67;1835224;77;22133;-64
2021/09/21 02:24:39;;;;;;;8.13;2.83;;;;;;;7.24;97.87;144038.19;1853482;77;22159;-62
2021/09/21 02:27:14;;;;;;;6.00;3.12;;;;;;;7.31;97.74;144056.95;1835009;77;22145;-70
2021/09/21 02:29:52;;;;;;;5.00;3.22;;;;;;;7.32;97.24;144059.44;1853719;77;22557;-69
2021/09/21 02:32:49;;;;;;;7.05;3.10;;;;;;;7.33;97.35;144060.73;1834988;77;22140;-63
2021/09/21 02:35:23;;;;;;;4.75;2.98;;;;;;;7.35;97.34;144065.69;1843395;77;22128;-66
2021/09/21 02:38:17;;;;;;;4.72;3.00;;;;;;;7.38;97.05;144074.48;1834986;77;22133;-61
2021/09/21 02:40:52;;;;;;;5.42;2.90;;;;;;;7.32;96.69;144058.20;1853599;77;22136;-63
2021/09/21 02:43:27;;;;;;;5.22;3.02;;;;;;;7.31;97.01;144055.72;1835080;77;22128;-70
2021/09/21 02:46:20;;;;;;;4.47;2.42;;;;;;;7.33;96.82;144060.73;1853507;77;22139;-66
2021/09/21 02:48:57;;;;;;;5.08;2.85;;;;;;;7.33;96.65;144060.73;1834784;77;22159;-63
2021/09/21 02:51:32;;;;;;;6.12;2.87;;;;;;;7.32;96.51;144059.44;1853550;77;22152;-66
2021/09/21 02:54:06;;;;;;;5.03;2.70;;;;;;;7.36;96.55;144068.22;1834998;77;22133;-63
2021/09/21 02:57:01;;;;;;;6.35;2.98;;;;;;;7.40;96.42;144078.20;1828051;77;22205;-62
2021/09/21 02:59:38;;;;;;;6.78;3.00;;;;;;;7.42;96.42;144083.22;1835124;77;22124;-68
2021/09/21 03:02:13;;;;;;;6.65;2.85;;;;;;;7.46;96.32;144093.23;1835249;77;22120;-64
2021/09/21 03:04:55;;;;;;;5.87;2.80;;;;;;;7.52;96.14;144108.23;1853791;77;22128;-67
2021/09/21 03:08:03;;;;;;;5.85;2.98;;;;;;;7.56;96.03;144118.27;1834949;77;22140;-65
2021/09/21 03:11:13;;;;;;;5.75;2.37;;;;;;;7.63;95.73;144133.25;1834907;77;22551;-57
2021/09/21 03:17:09;;;;;;;6.70;2.70;;;;;;;7.58;95.10;144123.28;1853771;77;22124;-62
2021/09/21 03:19:44;;;;;;;4.60;2.42;;;;;;;7.62;95.09;144132.02;1835414;77;22125;-62
2021/09/21 03:22:22;;;;;;;5.40;2.50;;;;;;;7.65;94.88;144138.28;1835368;77;20096;-71
2021/09/21 03:25:17;;;;;;;4.30;2.35;;;;;;;7.63;94.55;144133.25;1834992;77;22140;-63
2021/09/21 03:28:11;;;;;;;3.50;2.15;;;;;;;7.54;94.25;144113.25;1835035;77;22616;-65
2021/09/21 03:30:46;;;;;;;6.90;2.20;;;;;;;7.46;94.12;144093.23;1834216;77;22567;-58
2021/09/21 03:33:40;;;;;;;5.00;2.10;;;;;;;7.40;94.30;144078.20;1853384;77;22140;-61
2021/09/21 03:36:34;;;;;;;3.83;2.22;;;;;;;7.42;94.49;144083.22;1834822;77;22140;-69
2021/09/21 03:39:09;;;;;;;4.53;1.98;;;;;;;7.46;94.54;144093.23;1834944;77;22139;-69
2021/09/21 03:41:44;;;;;;;4.40;2.10;;;;;;;7.45;94.23;144089.47;1835072;77;22128;-63
2021/09/21 03:44:19;;;;;;;6.80;1.75;;;;;;;7.44;94.17;144088.23;1853813;77;22155;-73
2021/09/21 03:46:55;;;;;;;5.67;2.35;;;;;;;7.45;94.08;144090.72;1834998;77;22132;-63
2021/09/21 03:49:50;;;;;;;4.42;2.40;;;;;;;7.51;94.13;144104.52;1819398;77;28389;-69
2021/09/21 03:52:44;;;;;;;4.15;2.08;;;;;;;7.59;94.14;144124.52;1853562;77;22562;-61
2021/09/21 03:55:25;;;;;;;4.92;2.35;;;;;;;7.60;93.92;144127.00;1834230;77;22140;-55
2021/09/21 03:58:00;;;;;;;7.58;2.40;;;;;;;7.56;93.91;144117.03;1835142;77;22156;-70
2021/09/21 04:00:54;;;;;;;5.87;2.10;;;;;;;7.49;93.96;144100.75;1834956;77;22160;-70
2021/09/21 04:03:47;;;;;;;5.60;2.80;;;;;;;7.35;94.06;144065.69;1834921;77;22132;-61
2021/09/21 04:06:22;;;;;;;5.08;2.30;;;;;;;7.27;94.28;144045.69;1835237;77;22128;-65
2021/09/21 04:09:22;;;;;;;8.33;3.80;;;;;;;7.24;94.41;144038.19;1833888;77;22250;-63
2021/09/21 04:11:57;;;;;;;4.83;2.40;;;;;;;7.20;94.68;144028.17;1824274;77;22212;-59
2021/09/21 04:14:33;;;;;;;4.50;2.25;;;;;;;7.17;94.86;144023.20;1853438;77;22582;-63
2021/09/21 04:17:08;;;;;;;10.78;7.12;;;;;;;7.16;95.01;144020.67;1795377;77;28548;-66
2021/09/21 04:20:03;;;;;;;6.05;3.45;;;;;;;7.17;95.07;144023.20;1853354;77;22201;-62
2021/09/21 04:22:44;;;;;;;7.67;4.30;;;;;;;7.23;95.29;144035.72;1833302;77;22165;-63
2021/09/21 04:25:38;;;;;;;5.08;2.30;;;;;;;7.32;95.17;144058.20;1834834;77;22239;-65
2021/09/21 04:28:32;;;;;;;3.47;2.20;;;;;;;7.39;95.04;144076.97;1829262;77;22175;-72
2021/09/21 04:31:09;;;;;;;5.15;2.47;;;;;;;7.43;94.86;144085.75;1834643;77;22157;-67
2021/09/21 04:34:15;;;;;;;7.90;3.52;;;;;;;7.45;94.74;144090.72;1834079;77;22180;-64
2021/09/21 04:37:17;;;;;;;7.45;3.15;;;;;;;7.51;95.13;144105.75;1837695;77;28413;-53
2021/09/21 04:39:52;;;;;;;4.90;2.02;;;;;;;7.59;94.85;144125.75;1833719;77;27982;-63
2021/09/21 04:42:45;;;;;;;6.60;2.20;;;;;;;7.65;94.84;144138.28;1834801;77;22161;-70
2021/09/21 04:45:39;;;;;;;5.00;2.17;;;;;;;7.56;94.88;144118.27;1834794;77;22160;-57
2021/09/21 04:48:14;;;;;;;4.17;2.08;;;;;;;7.47;95.00;144095.72;1834905;77;22132;-66
2021/09/21 04:51:09;;;;;;;4.60;2.02;;;;;;;7.37;94.91;144070.70;1843091;78;22156;-70
2021/09/21 04:53:44;;;;;;;6.78;2.12;;;;;;;7.37;95.22;144071.95;1834928;77;22132;-60
2021/09/21 04:56:24;;;;;;;5.10;2.40;;;;;;;7.38;95.17;144073.23;1834151;77;22603;-57
2021/09/21 04:59:18;;;;;;;6.72;2.42;;;;;;;7.39;95.13;144076.97;1853472;77;22554;-60
2021/09/21 05:01:59;;;;;;;2.95;1.62;;;;;;;7.37;95.09;144070.70;1853298;77;22187;-68
2021/09/21 05:04:53;;;;;;;6.70;2.65;;;;;;;7.32;94.93;144058.20;1834847;77;22164;-66
2021/09/21 05:07:33;;;;;;;5.30;2.45;;;;;;;7.31;95.30;144055.72;1834062;77;22610;-67
2021/09/21 05:10:11;;;;;;;4.28;2.17;;;;;;;7.34;95.51;144063.22;1834715;77;22183;-60
2021/09/21 05:12:46;;;;;;;4.10;1.90;;;;;;;7.40;95.12;144078.20;1837483;77;28000;-68
2021/09/21 05:15:39;;;;;;;4.33;2.02;;;;;;;7.49;94.96;144100.75;1835147;77;22161;-61
2021/09/21 05:18:15;;;;;;;8.65;1.80;;;;;;;7.49;94.91;144100.75;1835359;77;22630;-54
2021/09/21 05:21:09;;;;;;;7.05;2.00;;;;;;;7.56;94.95;144117.03;1853738;77;22152;-56
2021/09/21 05:23:43;;;;;;;3.27;1.60;;;;;;;7.61;94.64;144129.53;1853815;77;22558;-58
2021/09/21 05:26:18;;;;;;;4.53;1.70;;;;;;;7.63;94.43;144133.25;1853628;77;22132;-62
2021/09/21 05:28:53;;;;;;;8.38;2.35;;;;;;;7.64;94.15;144135.78;1835061;77;22191;-59
2021/09/21 05:31:30;;;;;;;3.08;1.77;;;;;;;7.56;94.14;144118.27;1843022;77;22156;-59
2021/09/21 05:34:24;;;;;;;3.02;1.37;;;;;;;7.53;93.73;144110.77;1834943;77;22137;-72
2021/09/21 05:37:05;;;;;;;5.67;1.98;;;;;;;7.55;93.49;144114.50;1833864;77;22602;-69
2021/09/21 05:40:00;;;;;;;2.85;1.50;;;;;;;7.57;93.36;144120.75;1833442;77;22231;-61
2021/09/21 05:42:41;;;;;;;3.47;1.98;;;;;;;7.58;93.25;144123.28;1836336;77;22220;-55
2021/09/21 05:45:35;;;;;;;3.87;1.90;;;;;;;7.55;93.05;144115.73;1853545;77;22136;-71
2021/09/21 05:48:29;;;;;;;4.83;1.82;;;;;;;7.54;93.08;144113.25;1835036;77;22128;-69
2021/09/21 05:51:04;;;;;;;3.05;1.57;;;;;;;7.59;93.01;144125.75;1834930;77;22156;-66
2021/09/21 05:53:39;;;;;;;5.92;1.95;;;;;;;7.59;92.52;144125.75;1834635;77;22220;-66
2021/09/21 05:56:39;;;;;;;3.95;1.70;;;;;;;7.70;92.50;144150.78;1853320;77;22195;-58
2021/09/21 05:59:15;;;;;;;3.42;1.92;;;;;;;7.76;92.23;144167.06;1853378;77;22156;-62
2021/09/21 06:01:50;;;;;;;5.50;1.65;;;;;;;7.74;91.96;144162.06;1853150;77;22218;-57
2021/09/21 06:04:24;;;;;;;5.92;1.98;;;;;;;7.83;91.94;144184.55;1835116;77;22136;-61
2021/09/21 06:07:08;;;;;;;4.53;1.57;;;;;;;7.93;91.80;144207.09;1834173;77;22184;-61
2021/09/21 06:10:03;;;;;;;4.60;1.67;;;;;;;8.00;91.40;144225.88;1853342;77;22585;-57
2021/09/21 06:12:38;;;;;;;3.45;1.85;;;;;;;8.02;91.06;144230.87;1834659;77;22615;-61
2021/09/21 06:15:14;;;;;;;5.70;2.12;;;;;;;8.07;90.48;144240.91;1834798;77;22566;-57
2021/09/21 06:17:50;;;;;;;6.60;2.47;;;;;;;8.08;90.36;144243.41;1853456;77;22232;-56
2021/09/21 06:20:25;;;;;;;5.95;2.00;;;;;;;8.05;90.08;144238.37;1834804;77;22137;-58
2021/09/21 06:23:00;;;;;;;6.83;2.10;;;;;;;8.08;90.28;144243.41;1834788;77;22586;-59
2021/09/21 06:25:54;;;;;;;4.12;1.80;;;;;;;8.08;90.16;144244.64;1834857;77;22156;-60
2021/09/21 06:28:28;;;;;;;6.30;2.00;;;;;;;8.09;90.02;144245.87;1834937;77;22138;-59
2021/09/21 06:31:04;;;;;;;4.72;1.92;;;;;;;8.08;89.91;144244.64;1834670;77;22136;-59
2021/09/21 06:34:00;;;;;;;4.90;2.30;;;;;;;8.08;89.50;144243.41;1834819;77;22161;-60
2021/09/21 06:36:41;;;;;;;4.62;2.00;;;;;;;8.04;89.76;144235.91;1825311;77;22197;-58
2021/09/21 06:39:17;;;;;;;4.00;1.67;;;;;;;8.12;89.94;144253.44;1834661;77;22126;-56
2021/09/21 06:41:53;;;;;;;3.50;1.60;;;;;;;8.04;89.71;144235.91;1853181;77;22230;-60
2021/09/21 06:44:52;;;;;;;4.17;1.57;;;;;;;8.01;89.78;144228.41;1853429;77;22163;-60
2021/09/21 06:47:27;;;;;;;3.37;1.75;;;;;;;8.00;89.62;144225.88;1834917;77;22133;-57
2021/09/21 06:50:10;;;;;;;3.30;1.82;;;;;;;7.98;89.12;144220.84;1834099;77;22184;-61
2021/09/21 06:53:11;;;;;;;6.30;2.45;;;;;;;7.92;89.43;144205.86;1853372;77;22255;-62
2021/09/21 06:56:05;;;;;;;5.62;1.70;;;;;;;7.84;89.65;144185.84;1843211;77;22182;-58
2021/09/21 06:58:59;;;;;;;6.30;1.75;;;;;;;7.77;89.67;144168.31;1834866;77;22140;-59
2021/09/21 07:01:34;;;;;;;3.22;1.40;;;;;;;7.75;90.03;144163.30;1806539;77;22219;-57
2021/09/21 07:04:18;;;;;;;4.78;1.52;;;;;;;7.78;89.88;144172.03;1833795;77;22595;-57
2021/09/21 07:06:59;;;;;;;3.33;1.62;;;;;;;7.72;89.91;144155.80;1834088;77;22155;-61
2021/09/21 07:09:53;;;;;;;3.45;1.65;;;;;;;7.61;90.15;144130.78;1834807;77;22132;-59
2021/09/21 07:12:28;;;;;;;6.67;1.90;;;;;;;7.63;90.20;144134.50;1834730;77;22287;-59
2021/09/21 07:15:23;;;;;;;4.55;1.80;;;;;;;7.68;90.43;144147.02;1834872;77;22128;-59
2021/09/21 07:17:58;;;;;;;3.45;1.70;;;;;;;7.67;89.88;144143.28;1819048;77;28070;-58
2021/09/21 07:20:39;;;;;;;6.12;1.70;;;;;;;7.66;90.00;144140.75;1833845;77;22190;-61
2021/09/21 07:23:14;;;;;;;3.42;1.77;;;;;;;7.64;90.06;144137.03;1834893;77;22160;-61
2021/09/21 07:25:48;;;;;;;3.45;1.80;;;;;;;7.68;89.96;144145.77;1834837;77;22128;-60
2021/09/21 07:28:32;;;;;;;2.77;1.50;;;;;;;7.79;90.29;144174.56;1853449;77;22179;-61
2021/09/21 07:31:07;;;;;;;3.62;1.70;;;;;;;7.88;89.74;144195.83;1834742;77;22152;-60
2021/09/21 07:33:42;;;;;;;4.37;1.60;;;;;;;7.92;89.48;144204.61;1853243;77;23183;-61
2021/09/21 07:36:16;;;;;;;5.05;1.60;;;;;;;7.90;89.21;144200.84;1832033;77;22140;-61
2021/09/21 07:39:31;;;;;;;2.83;1.45;;;;;;;7.93;89.71;144207.09;1828842;77;22212;-57
2021/09/21 07:42:18;;;;;;;2.98;1.50;;;;;;;7.93;89.74;144208.34;1834897;77;22133;-61
2021/09/21 07:45:12;;;;;;;4.03;1.27;;;;;;;8.06;89.56;144239.62;1834564;77;22156;-60
2021/09/21 07:48:17;;;;;;;2.72;1.30;;;;;;;8.19;89.01;144270.92;1834059;77;22172;-57
2021/09/21 07:50:51;;;;;;;3.58;1.62;;;;;;;8.20;88.78;144273.45;1852034;77;22206;-61
2021/09/21 07:53:45;;;;;;;3.17;1.50;;;;;;;8.16;89.24;144263.42;1834961;77;22234;-59
2021/09/21 07:56:21;;;;;;;3.45;1.65;;;;;;;8.17;89.42;144265.95;1853578;77;22127;-58
2021/09/21 07:59:21;;;;;;;3.75;1.90;;;;;;;8.07;89.64;144240.91;1834143;77;22180;-63
2021/09/21 08:01:55;;;;;;;3.33;1.70;;;;;;;8.08;90.17;144243.41;1835053;77;22555;-61
2021/09/21 08:04:30;;;;;;;4.03;1.75;;;;;;;8.09;90.40;144245.87;1834999;77;22575;-63
2021/09/21 08:07:08;;;;;;;3.05;1.45;;;;;;;8.16;90.39;144263.42;1835013;77;22649;-59
2021/09/21 08:09:45;;;;;;;4.47;1.82;;;;;;;8.09;89.53;144245.87;1835090;77;22133;-57
2021/09/21 08:12:40;;;;;;;2.77;1.70;;;;;;;8.05;89.25;144238.37;1834974;77;22137;-62
2021/09/21 08:15:15;;;;;;;2.25;1.35;;;;;;;8.02;89.67;144230.87;1834960;77;22155;-62
2021/09/21 08:17:50;;;;;;;3.98;1.62;;;;;;;8.00;89.48;144225.88;1853550;77;22131;-65
2021/09/21 08:20:44;;;;;;;2.35;1.32;;;;;;;7.98;90.09;144220.84;1835057;77;22120;-59
2021/09/21 08:23:19;;;;;;;2.72;1.50;;;;;;;8.12;89.76;144253.44;1835091;77;22245;-61
2021/09/21 08:25:53;;;;;;;3.17;1.40;;;;;;;8.23;89.83;144280.95;1835021;77;22124;-58
2021/09/21 08:28:48;;;;;;;5.75;1.52;;;;;;;8.40;89.36;144322.33;1834991;77;22124;-62
2021/09/21 08:31:22;;;;;;;3.27;1.52;;;;;;;8.57;88.97;144363.63;1835046;77;22583;-61
2021/09/21 08:33:57;;;;;;;2.60;1.50;;;;;;;8.66;88.25;144386.17;1835033;77;22136;-58
2021/09/21 08:36:36;;;;;;;5.28;1.75;;;;;;;8.74;87.96;144406.20;1835012;77;22547;-62
2021/09/21 08:39:29;;;;;;;5.10;1.60;;;;;;;8.86;87.49;144436.28;1819370;77;27948;-61
2021/09/21 08:42:04;;;;;;;3.20;1.80;;;;;;;9.04;87.18;144478.87;1835014;77;22210;-60
2021/09/21 08:44:40;;;;;;;6.50;1.80;;;;;;;9.05;85.98;144481.34;1835035;77;22129;-64
2021/09/21 08:47:17;;;;;;;3.85;1.60;;;;;;;8.96;85.37;144460.08;1834955;77;22155;-61
2021/09/21 08:50:13;;;;;;;3.30;1.50;;;;;;;8.86;85.87;144435.03;1835122;77;22560;-57
2021/09/21 08:53:06;;;;;;;2.87;1.50;;;;;;;8.83;85.81;144428.77;1835004;77;22125;-56
2021/09/21 08:55:47;;;;;;;4.95;1.80;;;;;;;8.86;85.71;144436.28;1834187;77;22164;-61
2021/09/21 08:58:25;;;;;;;2.80;1.70;;;;;;;8.81;85.38;144423.75;1819337;77;27961;-62
2021/09/21 09:01:20;;;;;;;4.62;1.60;;;;;;;8.75;84.96;144408.73;1853582;77;22566;-61
2021/09/21 09:04:00;;;;;;;2.72;1.37;;;;;;;8.71;84.31;144398.70;1834196;77;22156;-60
2021/09/21 09:06:47;;;;;;;2.85;1.45;;;;;;;8.66;84.28;144386.17;1819261;77;38263;-59
2021/09/21 09:09:34;;;;;;;3.00;1.42;;;;;;;8.65;84.55;144383.64;1853528;77;22635;-65
2021/09/21 09:12:15;;;;;;;3.72;1.65;;;;;;;8.59;84.70;144368.64;1834169;77;22583;-63
2021/09/21 09:15:21;;;;;;;2.50;1.32;;;;;;;8.73;84.84;144403.72;1834971;77;22132;-64
2021/09/21 09:18:01;;;;;;;4.42;1.40;;;;;;;8.84;83.82;144431.25;1835010;77;22539;-60
2021/09/21 09:20:59;;;;;;;2.67;1.42;;;;;;;8.82;83.75;144426.23;1853485;77;22131;-56
2021/09/21 09:23:47;;;;;;;2.35;1.35;;;;;;;8.84;83.11;144431.25;1834174;77;22591;-60
2021/09/21 09:26:40;;;;;;;3.45;1.50;;;;;;;8.76;82.72;144411.22;1819435;77;27940;-59
2021/09/21 09:29:55;;;;;;;4.35;1.70;;;;;;;8.76;83.20;144411.22;1834179;77;22196;-62
2021/09/21 09:32:47;;;;;;;3.90;1.80;;;;;;;8.81;82.83;144423.75;1835009;77;22156;-60
2021/09/21 09:35:40;;;;;;;2.87;1.42;;;;;;;8.79;82.71;144418.72;1834906;77;22129;-59
2021/09/21 09:38:21;;;;;;;5.92;1.80;;;;;;;8.78;82.88;144416.25;1835029;77;22155;-64
2021/09/21 09:41:15;;;;;;;5.67;1.75;;;;;;;8.86;82.51;144436.28;1834948;77;22591;-61
2021/09/21 09:44:14;;;;;;;4.08;1.20;;;;;;;8.80;82.50;144419.97;1834933;77;22132;-64
2021/09/21 09:46:54;;;;;;;2.83;1.45;;;;;;;8.77;82.87;144413.70;1834992;77;22128;-61
2021/09/21 09:49:49;;;;;;;3.10;1.60;;;;;;;8.85;83.11;144433.78;1853544;77;22163;-57
2021/09/21 09:52:24;;;;;;;2.27;1.35;;;;;;;8.89;82.25;144442.53;1835025;77;22562;-60
2021/09/21 09:55:00;;;;;;;2.92;1.57;;;;;;;8.89;82.09;144443.78;1834793;77;22181;-58
2021/09/21 09:57:55;;;;;;;2.95;1.30;;;;;;;8.87;81.92;144438.75;1835080;77;22185;-61
2021/09/21 10:00:54;;;;;;;3.50;1.52;;;;;;;8.88;81.34;144440.05;1835018;77;22200;-60
2021/09/21 10:03:28;;;;;;;4.05;1.80;;;;;;;8.81;81.42;144423.75;1835020;77;22120;-64
2021/09/21 10:06:03;;;;;;;4.92;2.27;;;;;;;8.88;81.93;144440.05;1853631;77;22123;-64
2021/09/21 10:08:58;;;;;;;5.60;1.90;;;;;;;9.02;81.59;144475.09;1853529;77;22135;-61
2021/09/21 10:11:34;;;;;;;4.35;2.30;;;;;;;9.13;81.73;144501.39;1853550;77;22542;-63
2021/09/21 10:14:19;;;;;;;3.75;1.98;;;;;;;9.15;81.50;144506.41;1853522;77;22175;-62
2021/09/21 10:17:19;;;;;;;5.65;1.80;;;;;;;9.12;81.16;144498.91;1834921;77;22132;-60
2021/09/21 10:19:55;;;;;;;3.58;1.70;;;;;;;9.08;80.82;144490.16;1843432;78;22168;-58
2021/09/21 10:22:36;;;;;;;3.10;1.22;;;;;;;9.08;81.12;144488.86;1835015;77;22148;-63
2021/09/21 10:25:42;;;;;;;2.17;1.30;;;;;;;9.02;81.04;144473.84;1835128;77;22124;-57
2021/09/21 10:28:39;;;;;;;2.98;1.45;;;;;;;8.95;80.99;144457.55;1853548;77;22136;-63
2021/09/21 10:31:18;;;;;;;3.10;1.30;;;;;;;8.99;81.06;144466.34;1853428;77;22153;-61
2021/09/21 10:33:53;;;;;;;5.90;1.65;;;;;;;9.08;81.06;144490.16;1835002;77;22252;-64
2021/09/21 10:36:34;;;;;;;2.47;1.30;;;;;;;9.18;81.11;144513.91;1835160;77;22132;-62
2021/09/21 10:39:11;;;;;;;3.37;1.62;;;;;;;9.21;80.96;144520.17;1835001;77;22544;-60
2021/09/21 10:42:15;;;;;;;4.65;1.95;;;;;;;9.17;80.91;144511.42;1819587;77;27969;-57
2021/09/21 10:44:58;;;;;;;4.40;1.90;;;;;;;9.11;81.28;144496.41;1834975;77;22132;-66
2021/09/21 10:47:40;;;;;;;3.52;1.85;;;;;;;9.14;81.38;144503.92;1843445;78;22124;-58
2021/09/21 10:50:40;;;;;;;4.90;2.40;;;;;;;9.19;80.75;144516.45;1853474;77;22612;-59
2021/09/21 10:53:16;;;;;;;4.03;1.92;;;;;;;9.13;81.03;144501.39;1819365;77;27985;-64
2021/09/21 10:56:09;;;;;;;4.15;1.98;;;;;;;9.11;81.13;144496.41;1853808;77;22151;-66
2021/09/21 10:58:54;;;;;;;3.17;1.60;;;;;;;9.04;80.99;144480.11;1853755;77;22124;-55
2021/09/21 11:01:49;;;;;;;3.30;1.75;;;;;;;8.97;81.16;144461.31;1835119;77;22136;-61
2021/09/21 11:04:44;;;;;;;4.60;1.70;;;;;;;8.84;81.85;144431.25;1835162;77;22136;-65
2021/09/21 11:07:20;;;;;;;3.52;1.70;;;;;;;8.80;82.29;144421.25;1834966;77;22578;-66
2021/09/21 11:10:13;;;;;;;5.40;1.42;;;;;;;8.87;82.55;144438.75;1834986;77;22136;-62
2021/09/21 11:12:51;;;;;;;5.65;1.90;;;;;;;8.97;82.12;144461.31;1835060;77;22121;-56
2021/09/21 11:15:46;;;;;;;2.55;1.40;;;;;;;9.05;82.22;144481.34;1834879;77;22563;-64
2021/09/21 11:18:44;;;;;;;4.58;1.40;;;;;;;9.08;81.38;144488.86;1834925;77;22164;-59
2021/09/21 11:21:19;;;;;;;2.70;1.30;;;;;;;9.11;81.40;144497.66;1834928;77;22124;-61
2021/09/21 11:23:56;;;;;;;3.80;1.67;;;;;;;9.09;81.31;144491.39;1834976;77;22125;-61
2021/09/21 11:26:31;;;;;;;4.85;1.67;;;;;;;9.02;81.39;144473.84;1834928;77;22238;-58
2021/09/21 11:29:35;;;;;;;2.80;1.52;;;;;;;9.05;81.60;144482.59;1834192;77;22160;-60
2021/09/21 11:32:21;;;;;;;4.50;1.65;;;;;;;9.03;80.98;144476.33;1835090;77;22160;-66
2021/09/21 11:35:18;;;;;;;2.95;1.60;;;;;;;8.98;81.48;144463.81;1835046;77;22129;-61
2021/09/21 11:37:53;;;;;;;3.05;1.40;;;;;;;9.03;81.80;144477.63;1835004;77;22571;-62
2021/09/21 11:40:51;;;;;;;5.83;1.57;;;;;;;9.13;81.63;144501.39;1834906;77;22132;-60
2021/09/21 11:43:25;;;;;;;3.37;1.60;;;;;;;9.10;81.57;144493.88;1834968;77;22137;-59
2021/09/21 11:46:01;;;;;;;6.22;1.62;;;;;;;9.00;81.72;144468.83;1835016;77;22132;-61
2021/09/21 11:48:35;;;;;;;2.90;1.40;;;;;;;8.96;81.82;144458.83;1853507;77;22147;-62
2021/09/21 11:51:34;;;;;;;3.80;1.42;;;;;;;8.95;82.17;144456.30;1835079;77;22124;-62
2021/09/21 11:54:08;;;;;;;4.80;1.40;;;;;;;8.89;82.18;144443.78;1835024;77;22567;-60
2021/09/21 11:57:03;;;;;;;3.47;1.50;;;;;;;8.93;82.47;144451.28;1834909;77;22172;-61
2021/09/21 11:59:37;;;;;;;3.87;1.50;;;;;;;8.99;82.65;144467.58;1819470;77;27878;-62
2021/09/21 12:02:34;;;;;;;3.17;1.60;;;;;;;9.12;82.29;144500.14;1834953;77;22136;-64
2021/09/21 12:05:30;;;;;;;3.77;1.75;;;;;;;9.02;82.33;144475.09;1853469;77;22160;-59
2021/09/21 12:08:10;;;;;;;4.35;1.90;;;;;;;9.03;82.39;144476.33;1835001;77;22133;-60
2021/09/21 12:10:55;;;;;;;2.87;1.52;;;;;;;9.01;81.95;144471.36;1835068;77;22539;-61
2021/09/21 12:13:29;;;;;;;7.37;1.37;;;;;;;8.93;82.11;144452.58;1835007;77;22153;-60
2021/09/21 12:16:28;;;;;;;2.85;1.27;;;;;;;8.88;82.21;144440.05;1834933;77;22151;-59
2021/09/21 12:19:15;;;;;;;2.42;1.25;;;;;;;8.86;82.17;144435.03;1853652;77;22538;-57
2021/09/21 12:22:11;;;;;;;4.10;1.98;;;;;;;8.80;82.55;144421.25;1853537;77;22135;-61
2021/09/21 12:25:10;;;;;;;3.10;1.50;;;;;;;8.65;82.83;144383.64;1835005;77;22566;-62
2021/09/21 12:28:11;;;;;;;4.55;1.80;;;;;;;8.57;83.34;144363.63;1834134;77;22140;-59
2021/09/21 12:30:46;;;;;;;3.02;1.52;;;;;;;8.47;83.17;144339.81;1835166;77;22152;-62
2021/09/21 12:33:42;;;;;;;3.67;1.50;;;;;;;8.33;83.27;144305.98;1853514;77;22135;-63
2021/09/21 12:36:28;;;;;;;3.72;1.70;;;;;;;8.28;83.77;144293.47;1834945;77;22164;-59
2021/09/21 12:39:23;;;;;;;3.35;1.82;;;;;;;8.32;84.05;144303.50;1853540;77;22144;-59
2021/09/21 12:42:18;;;;;;;2.70;1.52;;;;;;;8.34;84.24;144308.47;1853620;77;22135;-61
2021/09/21 12:45:12;;;;;;;4.08;1.77;;;;;;;8.32;84.17;144302.22;1834951;77;22132;-59
2021/09/21 12:47:50;;;;;;;2.33;1.30;;;;;;;8.36;84.16;144312.25;1835065;77;22124;-62
2021/09/21 12:50:25;;;;;;;3.08;1.42;;;;;;;8.36;83.83;144313.48;1835252;77;22159;-61
2021/09/21 12:53:20;;;;;;;3.00;1.50;;;;;;;8.37;83.86;144316.03;1834950;77;22128;-62
2021/09/21 12:56:11;;;;;;;5.55;1.90;;;;;;;8.39;83.85;144319.75;1819420;77;27881;-62
2021/09/21 12:59:12;;;;;;;6.03;1.60;;;;;;;8.41;83.89;144326.06;1835084;77;22615;-58
2021/09/21 13:02:03;;;;;;;3.17;1.40;;;;;;;8.39;83.86;144321.05;1853559;77;22124;-59